sensor_id;sensor_type;location;lat;lon;timestamp;temperature;humidity
19952;DHT22;10137;49.406;19.484;2023-02-17T00:01:11;0.20;99.90
19952;DHT22;10137;49.406;19.484;2023-02-17T00:03:40;0.20;99.90
19952;DHT22;10137;49.406;19.484;2023-02-17T00:06:09;0.20;99.90
19952;DHT22;10137;49.406;19.484;2023-02-17T00:08:39;0.30;99.90
19952;DHT22;10137;49.406;19.484;2023-02-17T00:11:06;0.50;99.90
19952;DHT22;10137;49.406;19.484;2023-02-17T00:13:34;0.60;99.90
19952;DHT22;10137;49.406;19.484;2023-02-17T00:16:06;0.70;99.90
19952;DHT22;10137;49.406;19.484;2023-02-17T00:18:33;0.80;99.90
19952;DHT22;10137;49.406;19.484;2023-02-17T00:21:10;0.70;99.90
19952;DHT22;10137;49.406;19.484;2023-02-17T00:23:40;0.70;99.90
19952;DHT22;10137;49.406;19.484;2023-02-17T00:26:08;0.70;99.90
19952;DHT22;10137;49.406;19.484;2023-02-17T00:28:36;0.70;99.90
19952;DHT22;10137;49.406;19.484;2023-02-17T00:31:07;0.70;99.90
19952;DHT22;10137;49.406;19.484;2023-02-17T00:33:36;0.50;99.90
19952;DHT22;10137;49.406;19.484;2023-02-17T00:36:05;0.50;99.90
19952;DHT22;10137;49.406;19.484;2023-02-17T00:38:34;0.50;99.90
19952;DHT22;10137;49.406;19.484;2023-02-17T00:41:04;0.50;99.90
19952;DHT22;10137;49.406;19.484;2023-02-17T00:43:32;0.60;99.90
19952;DHT22;10137;49.406;19.484;2023-02-17T00:45:59;0.70;99.90
19952;DHT22;10137;49.406;19.484;2023-02-17T00:48:30;0.70;99.90
19952;DHT22;10137;49.406;19.484;2023-02-17T00:50:58;0.70;99.90
19952;DHT22;10137;49.406;19.484;2023-02-17T00:53:27;0.80;99.90
19952;DHT22;10137;49.406;19.484;2023-02-17T00:55:55;0.80;99.90
19952;DHT22;10137;49.406;19.484;2023-02-17T00:58:27;0.90;99.90
19952;DHT22;10137;49.406;19.484;2023-02-17T01:00:56;1.00;99.90
19952;DHT22;10137;49.406;19.484;2023-02-17T01:03:25;1.10;99.90
19952;DHT22;10137;49.406;19.484;2023-02-17T01:05:54;1.20;99.90
19952;DHT22;10137;49.406;19.484;2023-02-17T01:08:23;1.30;99.90
19952;DHT22;10137;49.406;19.484;2023-02-17T01:10:51;1.30;99.90
19952;DHT22;10137;49.406;19.484;2023-02-17T01:13:20;1.20;99.90
19952;DHT22;10137;49.406;19.484;2023-02-17T01:15:52;1.10;99.90
19952;DHT22;10137;49.406;19.484;2023-02-17T01:18:20;0.90;99.90
19952;DHT22;10137;49.406;19.484;2023-02-17T01:20:49;0.50;99.90
19952;DHT22;10137;49.406;19.484;2023-02-17T01:23:16;0.20;99.90
19952;DHT22;10137;49.406;19.484;2023-02-17T01:25:46;0.20;99.90
19952;DHT22;10137;49.406;19.484;2023-02-17T01:28:17;-0.20;99.90
19952;DHT22;10137;49.406;19.484;2023-02-17T01:30:45;-0.30;99.90
19952;DHT22;10137;49.406;19.484;2023-02-17T01:33:15;-0.30;99.90
19952;DHT22;10137;49.406;19.484;2023-02-17T01:35:43;-0.50;99.90
19952;DHT22;10137;49.406;19.484;2023-02-17T01:38:11;-0.40;99.90
19952;DHT22;10137;49.406;19.484;2023-02-17T01:40:45;-0.40;99.90
19952;DHT22;10137;49.406;19.484;2023-02-17T01:43:14;-0.40;99.90
19952;DHT22;10137;49.406;19.484;2023-02-17T01:45:48;-0.40;99.90
19952;DHT22;10137;49.406;19.484;2023-02-17T01:48:21;-0.40;99.90
19952;DHT22;10137;49.406;19.484;2023-02-17T01:50:54;-0.60;99.90
19952;DHT22;10137;49.406;19.484;2023-02-17T01:53:38;-0.80;99.90
19952;DHT22;10137;49.406;19.484;2023-02-17T01:56:07;-0.90;99.90
19952;DHT22;10137;49.406;19.484;2023-02-17T01:58:38;-0.90;99.90
19952;DHT22;10137;49.406;19.484;2023-02-17T02:01:07;-0.90;99.90
19952;DHT22;10137;49.406;19.484;2023-02-17T02:03:37;-0.90;99.90
19952;DHT22;10137;49.406;19.484;2023-02-17T02:06:11;-0.80;99.90
19952;DHT22;10137;49.406;19.484;2023-02-17T02:08:48;-0.70;99.90
19952;DHT22;10137;49.406;19.484;2023-02-17T02:11:17;-0.60;99.90
19952;DHT22;10137;49.406;19.484;2023-02-17T02:13:45;-0.70;99.90
19952;DHT22;10137;49.406;19.484;2023-02-17T02:16:17;-0.80;99.90
19952;DHT22;10137;49.406;19.484;2023-02-17T02:18:55;-0.80;99.90
19952;DHT22;10137;49.406;19.484;2023-02-17T02:21:57;-0.90;99.90
19952;DHT22;10137;49.406;19.484;2023-02-17T02:24:38;-0.90;99.90
19952;DHT22;10137;49.406;19.484;2023-02-17T02:27:33;-0.90;99.90
19952;DHT22;10137;49.406;19.484;2023-02-17T02:30:34;-0.90;99.90
19952;DHT22;10137;49.406;19.484;2023-02-17T02:33:15;-0.80;99.90
19952;DHT22;10137;49.406;19.484;2023-02-17T02:35:55;-0.80;99.90
19952;DHT22;10137;49.406;19.484;2023-02-17T02:38:28;-0.80;99.90
19952;DHT22;10137;49.406;19.484;2023-02-17T02:41:03;-0.80;99.90
19952;DHT22;10137;49.406;19.484;2023-02-17T02:43:32;-0.80;99.90
19952;DHT22;10137;49.406;19.484;2023-02-17T02:45:59;-0.70;99.90
19952;DHT22;10137;49.406;19.484;2023-02-17T02:48:29;-0.70;99.90
19952;DHT22;10137;49.406;19.484;2023-02-17T02:51:21;-0.70;99.90
19952;DHT22;10137;49.406;19.484;2023-02-17T02:54:14;-0.80;99.90
19952;DHT22;10137;49.406;19.484;2023-02-17T02:56:53;-0.80;99.90
19952;DHT22;10137;49.406;19.484;2023-02-17T02:59:33;-0.80;99.90
19952;DHT22;10137;49.406;19.484;2023-02-17T03:02:09;-0.70;99.90
19952;DHT22;10137;49.406;19.484;2023-02-17T03:04:45;-0.70;99.90
19952;DHT22;10137;49.406;19.484;2023-02-17T03:07:20;-0.60;99.90
19952;DHT22;10137;49.406;19.484;2023-02-17T03:09:52;-0.50;99.90
19952;DHT22;10137;49.406;19.484;2023-02-17T03:12:21;-0.30;99.90
19952;DHT22;10137;49.406;19.484;2023-02-17T03:14:52;-0.20;99.90
19952;DHT22;10137;49.406;19.484;2023-02-17T03:17:22;-0.10;99.90
19952;DHT22;10137;49.406;19.484;2023-02-17T03:19:51;-0.10;99.90
19952;DHT22;10137;49.406;19.484;2023-02-17T03:22:23;0.00;99.90
19952;DHT22;10137;49.406;19.484;2023-02-17T03:24:51;0.00;99.90
19952;DHT22;10137;49.406;19.484;2023-02-17T03:27:19;0.20;99.90
19952;DHT22;10137;49.406;19.484;2023-02-17T03:29:47;0.30;99.90
19952;DHT22;10137;49.406;19.484;2023-02-17T03:32:15;0.40;99.90
19952;DHT22;10137;49.406;19.484;2023-02-17T03:34:43;0.50;99.90
19952;DHT22;10137;49.406;19.484;2023-02-17T03:37:13;0.50;99.90
19952;DHT22;10137;49.406;19.484;2023-02-17T03:39:41;0.50;99.90
19952;DHT22;10137;49.406;19.484;2023-02-17T03:42:10;0.50;99.90
19952;DHT22;10137;49.406;19.484;2023-02-17T03:44:38;0.50;99.90
19952;DHT22;10137;49.406;19.484;2023-02-17T03:47:07;0.50;99.90
19952;DHT22;10137;49.406;19.484;2023-02-17T03:49:35;0.50;99.90
19952;DHT22;10137;49.406;19.484;2023-02-17T03:52:04;0.50;99.90
19952;DHT22;10137;49.406;19.484;2023-02-17T03:54:33;0.50;99.90
19952;DHT22;10137;49.406;19.484;2023-02-17T03:57:01;0.50;99.90
19952;DHT22;10137;49.406;19.484;2023-02-17T03:59:29;0.50;99.90
19952;DHT22;10137;49.406;19.484;2023-02-17T04:01:57;0.60;99.90
19952;DHT22;10137;49.406;19.484;2023-02-17T04:04:25;0.70;99.90
19952;DHT22;10137;49.406;19.484;2023-02-17T04:06:53;0.80;99.90
19952;DHT22;10137;49.406;19.484;2023-02-17T04:09:21;0.90;99.90
19952;DHT22;10137;49.406;19.484;2023-02-17T04:11:50;0.90;99.90
19952;DHT22;10137;49.406;19.484;2023-02-17T04:14:18;1.00;99.90
19952;DHT22;10137;49.406;19.484;2023-02-17T04:16:46;1.10;99.90
19952;DHT22;10137;49.406;19.484;2023-02-17T04:19:13;1.10;99.90
19952;DHT22;10137;49.406;19.484;2023-02-17T04:21:41;1.20;99.90
19952;DHT22;10137;49.406;19.484;2023-02-17T04:24:09;1.20;99.90
19952;DHT22;10137;49.406;19.484;2023-02-17T04:26:38;1.30;99.90
19952;DHT22;10137;49.406;19.484;2023-02-17T04:29:07;1.40;99.90
19952;DHT22;10137;49.406;19.484;2023-02-17T04:31:36;1.50;99.90
19952;DHT22;10137;49.406;19.484;2023-02-17T04:34:03;1.40;99.90
19952;DHT22;10137;49.406;19.484;2023-02-17T04:36:31;1.40;99.90
19952;DHT22;10137;49.406;19.484;2023-02-17T04:38:59;1.50;99.90
19952;DHT22;10137;49.406;19.484;2023-02-17T04:41:28;1.40;99.90
19952;DHT22;10137;49.406;19.484;2023-02-17T04:43:56;1.30;99.90
19952;DHT22;10137;49.406;19.484;2023-02-17T04:46:26;1.30;99.90
19952;DHT22;10137;49.406;19.484;2023-02-17T04:48:54;1.30;99.90
19952;DHT22;10137;49.406;19.484;2023-02-17T04:51:23;1.30;99.90
19952;DHT22;10137;49.406;19.484;2023-02-17T04:53:51;1.30;99.90
19952;DHT22;10137;49.406;19.484;2023-02-17T04:56:19;1.40;99.90
19952;DHT22;10137;49.406;19.484;2023-02-17T04:58:47;1.30;99.90
19952;DHT22;10137;49.406;19.484;2023-02-17T05:01:14;1.30;99.90
19952;DHT22;10137;49.406;19.484;2023-02-17T05:03:44;1.30;99.90
19952;DHT22;10137;49.406;19.484;2023-02-17T05:06:12;1.30;99.90
19952;DHT22;10137;49.406;19.484;2023-02-17T05:08:41;1.30;99.90
19952;DHT22;10137;49.406;19.484;2023-02-17T05:11:07;1.30;99.90
19952;DHT22;10137;49.406;19.484;2023-02-17T05:13:35;1.30;99.90
19952;DHT22;10137;49.406;19.484;2023-02-17T05:16:03;1.20;99.90
19952;DHT22;10137;49.406;19.484;2023-02-17T05:18:31;1.20;99.90
19952;DHT22;10137;49.406;19.484;2023-02-17T05:21:00;1.20;99.90
19952;DHT22;10137;49.406;19.484;2023-02-17T05:23:29;1.20;99.90
19952;DHT22;10137;49.406;19.484;2023-02-17T05:25:57;1.30;99.90
19952;DHT22;10137;49.406;19.484;2023-02-17T05:28:25;1.40;99.90
19952;DHT22;10137;49.406;19.484;2023-02-17T05:30:52;1.40;99.90
19952;DHT22;10137;49.406;19.484;2023-02-17T05:33:20;1.40;99.90
19952;DHT22;10137;49.406;19.484;2023-02-17T05:35:48;1.50;99.90
19952;DHT22;10137;49.406;19.484;2023-02-17T05:38:18;1.40;99.90
19952;DHT22;10137;49.406;19.484;2023-02-17T05:40:53;1.40;99.90
19952;DHT22;10137;49.406;19.484;2023-02-17T05:43:24;1.50;99.90
19952;DHT22;10137;49.406;19.484;2023-02-17T05:45:52;1.60;99.90
19952;DHT22;10137;49.406;19.484;2023-02-17T05:48:19;1.60;99.90
19952;DHT22;10137;49.406;19.484;2023-02-17T05:50:47;1.70;99.90
19952;DHT22;10137;49.406;19.484;2023-02-17T05:53:14;1.80;99.90
19952;DHT22;10137;49.406;19.484;2023-02-17T05:55:43;1.90;99.90
19952;DHT22;10137;49.406;19.484;2023-02-17T05:58:10;2.10;99.90
19952;DHT22;10137;49.406;19.484;2023-02-17T06:00:37;2.20;99.90
19952;DHT22;10137;49.406;19.484;2023-02-17T06:03:04;2.40;99.90
19952;DHT22;10137;49.406;19.484;2023-02-17T06:05:32;2.50;99.90
19952;DHT22;10137;49.406;19.484;2023-02-17T06:07:59;2.50;99.90
19952;DHT22;10137;49.406;19.484;2023-02-17T06:10:26;2.50;99.90
19952;DHT22;10137;49.406;19.484;2023-02-17T06:12:55;2.60;99.90
19952;DHT22;10137;49.406;19.484;2023-02-17T06:15:22;2.70;99.90
19952;DHT22;10137;49.406;19.484;2023-02-17T06:17:53;2.70;99.90
19952;DHT22;10137;49.406;19.484;2023-02-17T06:20:20;2.90;99.90
19952;DHT22;10137;49.406;19.484;2023-02-17T06:22:50;3.00;99.90
19952;DHT22;10137;49.406;19.484;2023-02-17T06:25:17;3.10;99.90
19952;DHT22;10137;49.406;19.484;2023-02-17T06:27:45;3.20;99.90
19952;DHT22;10137;49.406;19.484;2023-02-17T06:30:16;3.20;99.90
19952;DHT22;10137;49.406;19.484;2023-02-17T06:32:45;3.30;99.90
19952;DHT22;10137;49.406;19.484;2023-02-17T06:35:13;3.30;99.90
19952;DHT22;10137;49.406;19.484;2023-02-17T06:37:42;3.40;99.90
19952;DHT22;10137;49.406;19.484;2023-02-17T06:40:11;3.50;99.90
19952;DHT22;10137;49.406;19.484;2023-02-17T06:42:40;3.60;99.90
19952;DHT22;10137;49.406;19.484;2023-02-17T06:45:14;3.60;99.90
19952;DHT22;10137;49.406;19.484;2023-02-17T06:47:42;3.60;99.90
19952;DHT22;10137;49.406;19.484;2023-02-17T06:50:10;3.70;99.90
19952;DHT22;10137;49.406;19.484;2023-02-17T06:52:37;3.70;99.90
19952;DHT22;10137;49.406;19.484;2023-02-17T06:55:06;3.70;99.90
19952;DHT22;10137;49.406;19.484;2023-02-17T06:57:35;3.80;99.90
19952;DHT22;10137;49.406;19.484;2023-02-17T07:00:04;3.90;99.90
19952;DHT22;10137;49.406;19.484;2023-02-17T07:02:36;3.90;99.90
19952;DHT22;10137;49.406;19.484;2023-02-17T07:05:05;3.90;99.90
19952;DHT22;10137;49.406;19.484;2023-02-17T07:07:32;3.90;99.90
19952;DHT22;10137;49.406;19.484;2023-02-17T07:10:00;4.00;99.90
19952;DHT22;10137;49.406;19.484;2023-02-17T07:12:29;4.00;99.90
19952;DHT22;10137;49.406;19.484;2023-02-17T07:14:57;4.00;99.90
19952;DHT22;10137;49.406;19.484;2023-02-17T07:17:25;4.10;99.90
19952;DHT22;10137;49.406;19.484;2023-02-17T07:19:55;4.10;99.90
19952;DHT22;10137;49.406;19.484;2023-02-17T07:22:24;4.20;99.90
19952;DHT22;10137;49.406;19.484;2023-02-17T07:24:53;4.20;99.90
19952;DHT22;10137;49.406;19.484;2023-02-17T07:27:23;4.30;99.90
19952;DHT22;10137;49.406;19.484;2023-02-17T07:29:51;4.40;99.90
19952;DHT22;10137;49.406;19.484;2023-02-17T07:32:19;4.50;99.90
19952;DHT22;10137;49.406;19.484;2023-02-17T07:34:46;4.60;99.90
19952;DHT22;10137;49.406;19.484;2023-02-17T07:37:18;4.70;99.90
19952;DHT22;10137;49.406;19.484;2023-02-17T07:39:47;4.90;99.90
19952;DHT22;10137;49.406;19.484;2023-02-17T07:42:15;5.00;99.90
19952;DHT22;10137;49.406;19.484;2023-02-17T07:44:43;5.00;99.90
19952;DHT22;10137;49.406;19.484;2023-02-17T07:47:11;5.20;99.90
19952;DHT22;10137;49.406;19.484;2023-02-17T07:49:39;5.30;99.90
19952;DHT22;10137;49.406;19.484;2023-02-17T07:52:08;5.30;99.90
19952;DHT22;10137;49.406;19.484;2023-02-17T07:54:37;5.40;99.90
19952;DHT22;10137;49.406;19.484;2023-02-17T07:57:06;5.40;99.90
19952;DHT22;10137;49.406;19.484;2023-02-17T07:59:34;5.40;99.90
19952;DHT22;10137;49.406;19.484;2023-02-17T08:02:02;5.50;99.90
19952;DHT22;10137;49.406;19.484;2023-02-17T08:04:30;5.50;99.90
19952;DHT22;10137;49.406;19.484;2023-02-17T08:06:59;5.60;99.90
19952;DHT22;10137;49.406;19.484;2023-02-17T08:09:27;5.80;99.90
19952;DHT22;10137;49.406;19.484;2023-02-17T08:12:16;6.00;99.90
19952;DHT22;10137;49.406;19.484;2023-02-17T08:15:02;6.20;99.90
19952;DHT22;10137;49.406;19.484;2023-02-17T08:17:30;6.20;99.90
19952;DHT22;10137;49.406;19.484;2023-02-17T08:19:59;6.20;99.90
19952;DHT22;10137;49.406;19.484;2023-02-17T08:22:28;6.30;99.90
19952;DHT22;10137;49.406;19.484;2023-02-17T08:24:56;6.30;99.90
19952;DHT22;10137;49.406;19.484;2023-02-17T08:27:24;6.30;99.90
19952;DHT22;10137;49.406;19.484;2023-02-17T08:29:52;6.20;99.90
19952;DHT22;10137;49.406;19.484;2023-02-17T08:32:20;6.20;99.90
19952;DHT22;10137;49.406;19.484;2023-02-17T08:34:48;6.10;99.90
19952;DHT22;10137;49.406;19.484;2023-02-17T08:37:16;6.10;99.90
19952;DHT22;10137;49.406;19.484;2023-02-17T08:39:45;6.10;99.90
19952;DHT22;10137;49.406;19.484;2023-02-17T08:42:13;6.10;99.90
19952;DHT22;10137;49.406;19.484;2023-02-17T08:44:41;6.20;99.90
19952;DHT22;10137;49.406;19.484;2023-02-17T08:47:09;6.30;99.90
19952;DHT22;10137;49.406;19.484;2023-02-17T08:49:39;6.40;99.90
19952;DHT22;10137;49.406;19.484;2023-02-17T08:52:08;6.40;99.90
19952;DHT22;10137;49.406;19.484;2023-02-17T08:54:36;6.40;99.90
19952;DHT22;10137;49.406;19.484;2023-02-17T08:57:04;6.50;99.90
19952;DHT22;10137;49.406;19.484;2023-02-17T08:59:32;6.50;99.90
19952;DHT22;10137;49.406;19.484;2023-02-17T09:02:02;6.50;99.90
19952;DHT22;10137;49.406;19.484;2023-02-17T09:04:30;6.50;99.90
19952;DHT22;10137;49.406;19.484;2023-02-17T09:06:58;6.50;99.90
19952;DHT22;10137;49.406;19.484;2023-02-17T09:09:27;6.60;99.90
19952;DHT22;10137;49.406;19.484;2023-02-17T09:11:56;6.60;99.90
19952;DHT22;10137;49.406;19.484;2023-02-17T09:14:24;6.70;99.90
19952;DHT22;10137;49.406;19.484;2023-02-17T09:16:53;6.80;99.90
19952;DHT22;10137;49.406;19.484;2023-02-17T09:19:24;6.80;99.90
19952;DHT22;10137;49.406;19.484;2023-02-17T09:21:52;6.80;99.90
19952;DHT22;10137;49.406;19.484;2023-02-17T09:24:19;6.80;99.90
19952;DHT22;10137;49.406;19.484;2023-02-17T09:26:46;6.70;99.90
19952;DHT22;10137;49.406;19.484;2023-02-17T09:29:15;6.70;99.90
19952;DHT22;10137;49.406;19.484;2023-02-17T09:31:43;6.70;99.90
19952;DHT22;10137;49.406;19.484;2023-02-17T09:34:11;6.70;99.90
19952;DHT22;10137;49.406;19.484;2023-02-17T09:36:41;6.60;99.90
19952;DHT22;10137;49.406;19.484;2023-02-17T09:39:09;6.60;99.90
19952;DHT22;10137;49.406;19.484;2023-02-17T09:41:41;6.60;99.90
19952;DHT22;10137;49.406;19.484;2023-02-17T09:44:16;6.50;99.90
19952;DHT22;10137;49.406;19.484;2023-02-17T09:46:50;6.40;99.90
19952;DHT22;10137;49.406;19.484;2023-02-17T09:49:23;6.40;99.90
19952;DHT22;10137;49.406;19.484;2023-02-17T09:51:57;6.50;99.90
19952;DHT22;10137;49.406;19.484;2023-02-17T09:54:29;6.40;99.90
19952;DHT22;10137;49.406;19.484;2023-02-17T09:57:00;6.50;99.90
19952;DHT22;10137;49.406;19.484;2023-02-17T09:59:34;6.40;99.90
19952;DHT22;10137;49.406;19.484;2023-02-17T10:02:06;6.30;99.90
19952;DHT22;10137;49.406;19.484;2023-02-17T10:04:41;6.20;99.90
19952;DHT22;10137;49.406;19.484;2023-02-17T10:07:17;6.20;99.90
19952;DHT22;10137;49.406;19.484;2023-02-17T10:09:49;6.20;99.90
19952;DHT22;10137;49.406;19.484;2023-02-17T10:12:21;6.10;99.90
19952;DHT22;10137;49.406;19.484;2023-02-17T10:14:55;6.10;99.90
19952;DHT22;10137;49.406;19.484;2023-02-17T10:17:28;6.00;99.90
19952;DHT22;10137;49.406;19.484;2023-02-17T10:20:03;6.00;99.90
19952;DHT22;10137;49.406;19.484;2023-02-17T10:22:33;6.00;99.90
19952;DHT22;10137;49.406;19.484;2023-02-17T10:25:05;6.00;99.90
19952;DHT22;10137;49.406;19.484;2023-02-17T10:27:42;6.00;99.90
19952;DHT22;10137;49.406;19.484;2023-02-17T10:30:25;6.00;99.90
19952;DHT22;10137;49.406;19.484;2023-02-17T10:33:05;5.90;99.90
19952;DHT22;10137;49.406;19.484;2023-02-17T10:35:49;6.00;99.90
19952;DHT22;10137;49.406;19.484;2023-02-17T10:38:29;5.90;99.90
19952;DHT22;10137;49.406;19.484;2023-02-17T10:41:02;5.90;99.90
19952;DHT22;10137;49.406;19.484;2023-02-17T10:43:32;5.90;99.90
19952;DHT22;10137;49.406;19.484;2023-02-17T10:46:04;5.90;99.90
19952;DHT22;10137;49.406;19.484;2023-02-17T10:48:37;5.90;99.90
19952;DHT22;10137;49.406;19.484;2023-02-17T10:51:14;5.90;99.90
19952;DHT22;10137;49.406;19.484;2023-02-17T10:53:46;5.80;99.90
19952;DHT22;10137;49.406;19.484;2023-02-17T10:56:17;5.80;99.90
19952;DHT22;10137;49.406;19.484;2023-02-17T10:58:52;5.70;99.90
19952;DHT22;10137;49.406;19.484;2023-02-17T11:01:22;5.70;99.90
19952;DHT22;10137;49.406;19.484;2023-02-17T11:04:01;5.60;99.90
19952;DHT22;10137;49.406;19.484;2023-02-17T11:06:30;5.60;99.90
19952;DHT22;10137;49.406;19.484;2023-02-17T11:09:02;5.60;99.90
19952;DHT22;10137;49.406;19.484;2023-02-17T11:11:31;5.50;99.90
19952;DHT22;10137;49.406;19.484;2023-02-17T11:14:12;5.50;99.90
19952;DHT22;10137;49.406;19.484;2023-02-17T11:16:46;5.40;99.90
19952;DHT22;10137;49.406;19.484;2023-02-17T11:19:21;5.30;99.90
19952;DHT22;10137;49.406;19.484;2023-02-17T11:21:51;5.30;99.90
19952;DHT22;10137;49.406;19.484;2023-02-17T11:24:22;5.20;99.90
19952;DHT22;10137;49.406;19.484;2023-02-17T11:26:57;5.20;99.90
19952;DHT22;10137;49.406;19.484;2023-02-17T11:29:26;5.30;99.90
19952;DHT22;10137;49.406;19.484;2023-02-17T11:31:56;5.20;99.90
19952;DHT22;10137;49.406;19.484;2023-02-17T11:34:26;5.30;99.90
19952;DHT22;10137;49.406;19.484;2023-02-17T11:37:00;5.20;99.90
19952;DHT22;10137;49.406;19.484;2023-02-17T11:39:35;5.20;99.90
19952;DHT22;10137;49.406;19.484;2023-02-17T11:42:13;5.20;99.90
19952;DHT22;10137;49.406;19.484;2023-02-17T11:44:41;5.20;99.90
19952;DHT22;10137;49.406;19.484;2023-02-17T11:47:14;5.10;99.90
19952;DHT22;10137;49.406;19.484;2023-02-17T11:50:20;5.10;99.90
19952;DHT22;10137;49.406;19.484;2023-02-17T11:52:58;5.10;99.90
19952;DHT22;10137;49.406;19.484;2023-02-17T11:55:35;5.10;99.90
19952;DHT22;10137;49.406;19.484;2023-02-17T11:58:18;5.00;99.90
19952;DHT22;10137;49.406;19.484;2023-02-17T12:00:54;4.90;99.90
19952;DHT22;10137;49.406;19.484;2023-02-17T12:06:23;4.90;99.90
19952;DHT22;10137;49.406;19.484;2023-02-17T12:09:02;4.90;99.90
19952;DHT22;10137;49.406;19.484;2023-02-17T12:11:40;4.80;99.90
19952;DHT22;10137;49.406;19.484;2023-02-17T12:14:30;4.80;99.90
19952;DHT22;10137;49.406;19.484;2023-02-17T12:17:10;4.80;99.90
19952;DHT22;10137;49.406;19.484;2023-02-17T12:19:45;4.80;99.90
19952;DHT22;10137;49.406;19.484;2023-02-17T12:22:18;4.80;99.90
19952;DHT22;10137;49.406;19.484;2023-02-17T12:24:56;4.80;99.90
19952;DHT22;10137;49.406;19.484;2023-02-17T12:27:39;4.70;99.90
19952;DHT22;10137;49.406;19.484;2023-02-17T12:30:22;4.80;99.90
19952;DHT22;10137;49.406;19.484;2023-02-17T12:33:07;4.80;99.90
19952;DHT22;10137;49.406;19.484;2023-02-17T12:35:43;4.90;99.90
19952;DHT22;10137;49.406;19.484;2023-02-17T12:38:15;4.80;99.90
19952;DHT22;10137;49.406;19.484;2023-02-17T12:40:49;4.80;99.90
19952;DHT22;10137;49.406;19.484;2023-02-17T12:43:24;4.80;99.90
19952;DHT22;10137;49.406;19.484;2023-02-17T12:45:57;4.70;99.90
19952;DHT22;10137;49.406;19.484;2023-02-17T12:48:30;4.80;99.90
19952;DHT22;10137;49.406;19.484;2023-02-17T12:51:05;4.80;99.90
19952;DHT22;10137;49.406;19.484;2023-02-17T12:53:41;4.80;99.90
19952;DHT22;10137;49.406;19.484;2023-02-17T12:59:13;4.80;99.90
19952;DHT22;10137;49.406;19.484;2023-02-17T13:01:48;4.80;99.90
19952;DHT22;10137;49.406;19.484;2023-02-17T13:04:18;4.80;99.90
19952;DHT22;10137;49.406;19.484;2023-02-17T13:06:55;4.70;99.90
19952;DHT22;10137;49.406;19.484;2023-02-17T13:09:30;4.70;99.90
19952;DHT22;10137;49.406;19.484;2023-02-17T13:12:16;4.70;99.90
19952;DHT22;10137;49.406;19.484;2023-02-17T13:14:48;4.70;99.90
19952;DHT22;10137;49.406;19.484;2023-02-17T13:17:24;4.70;99.90
19952;DHT22;10137;49.406;19.484;2023-02-17T13:20:24;4.70;99.90
19952;DHT22;10137;49.406;19.484;2023-02-17T13:23:04;4.70;99.90
19952;DHT22;10137;49.406;19.484;2023-02-17T13:25:34;4.70;99.90
19952;DHT22;10137;49.406;19.484;2023-02-17T13:28:16;4.70;99.90
19952;DHT22;10137;49.406;19.484;2023-02-17T13:30:46;4.70;99.90
19952;DHT22;10137;49.406;19.484;2023-02-17T13:33:29;4.70;99.90
19952;DHT22;10137;49.406;19.484;2023-02-17T13:35:57;4.70;99.90
19952;DHT22;10137;49.406;19.484;2023-02-17T13:38:29;4.70;99.90
19952;DHT22;10137;49.406;19.484;2023-02-17T13:40:59;4.70;99.90
19952;DHT22;10137;49.406;19.484;2023-02-17T13:43:29;4.60;99.90
19952;DHT22;10137;49.406;19.484;2023-02-17T13:46:00;4.60;99.90
19952;DHT22;10137;49.406;19.484;2023-02-17T13:48:31;4.60;99.90
19952;DHT22;10137;49.406;19.484;2023-02-17T13:51:05;4.60;99.90
19952;DHT22;10137;49.406;19.484;2023-02-17T13:53:33;4.60;99.90
19952;DHT22;10137;49.406;19.484;2023-02-17T13:56:03;4.70;99.90
19952;DHT22;10137;49.406;19.484;2023-02-17T13:58:33;4.60;99.90
19952;DHT22;10137;49.406;19.484;2023-02-17T14:01:04;4.60;99.90
19952;DHT22;10137;49.406;19.484;2023-02-17T14:03:40;4.60;99.90
19952;DHT22;10137;49.406;19.484;2023-02-17T14:06:12;4.60;99.90
19952;DHT22;10137;49.406;19.484;2023-02-17T14:08:42;4.60;99.90
19952;DHT22;10137;49.406;19.484;2023-02-17T14:11:10;4.70;99.90
19952;DHT22;10137;49.406;19.484;2023-02-17T14:13:41;4.70;99.90
19952;DHT22;10137;49.406;19.484;2023-02-17T14:16:27;4.60;99.90
19952;DHT22;10137;49.406;19.484;2023-02-17T14:19:07;4.60;99.90
19952;DHT22;10137;49.406;19.484;2023-02-17T14:21:41;4.60;99.90
19952;DHT22;10137;49.406;19.484;2023-02-17T14:24:25;4.60;99.90
19952;DHT22;10137;49.406;19.484;2023-02-17T14:26:58;4.60;99.90
19952;DHT22;10137;49.406;19.484;2023-02-17T14:29:40;4.60;99.90
19952;DHT22;10137;49.406;19.484;2023-02-17T14:32:28;4.60;99.90
19952;DHT22;10137;49.406;19.484;2023-02-17T14:35:07;4.60;99.90
19952;DHT22;10137;49.406;19.484;2023-02-17T14:37:37;4.60;99.90
19952;DHT22;10137;49.406;19.484;2023-02-17T14:40:13;4.60;99.90
19952;DHT22;10137;49.406;19.484;2023-02-17T14:42:41;4.60;99.90
19952;DHT22;10137;49.406;19.484;2023-02-17T14:45:10;4.60;99.90
19952;DHT22;10137;49.406;19.484;2023-02-17T14:47:38;4.60;99.90
19952;DHT22;10137;49.406;19.484;2023-02-17T14:50:07;4.60;99.90
19952;DHT22;10137;49.406;19.484;2023-02-17T14:52:40;4.50;99.90
19952;DHT22;10137;49.406;19.484;2023-02-17T14:55:14;4.60;99.90
19952;DHT22;10137;49.406;19.484;2023-02-17T14:57:43;4.60;99.90
19952;DHT22;10137;49.406;19.484;2023-02-17T15:00:13;4.50;99.90
19952;DHT22;10137;49.406;19.484;2023-02-17T15:02:42;4.50;99.90
19952;DHT22;10137;49.406;19.484;2023-02-17T15:05:10;4.50;99.90
19952;DHT22;10137;49.406;19.484;2023-02-17T15:07:38;4.50;99.90
19952;DHT22;10137;49.406;19.484;2023-02-17T15:10:16;4.50;99.90
19952;DHT22;10137;49.406;19.484;2023-02-17T15:12:46;4.50;99.90
19952;DHT22;10137;49.406;19.484;2023-02-17T15:15:26;4.40;99.90
19952;DHT22;10137;49.406;19.484;2023-02-17T15:18:00;4.40;99.90
19952;DHT22;10137;49.406;19.484;2023-02-17T15:20:28;4.50;99.90
19952;DHT22;10137;49.406;19.484;2023-02-17T15:22:56;4.40;99.90
19952;DHT22;10137;49.406;19.484;2023-02-17T15:25:23;4.40;99.90
19952;DHT22;10137;49.406;19.484;2023-02-17T15:27:52;4.40;99.90
19952;DHT22;10137;49.406;19.484;2023-02-17T15:30:20;4.50;99.90
19952;DHT22;10137;49.406;19.484;2023-02-17T15:32:48;4.40;99.90
19952;DHT22;10137;49.406;19.484;2023-02-17T15:35:22;4.40;99.90
19952;DHT22;10137;49.406;19.484;2023-02-17T15:37:51;4.40;99.90
19952;DHT22;10137;49.406;19.484;2023-02-17T15:40:21;4.40;99.90
19952;DHT22;10137;49.406;19.484;2023-02-17T15:42:53;4.40;99.90
19952;DHT22;10137;49.406;19.484;2023-02-17T15:45:23;4.50;99.90
19952;DHT22;10137;49.406;19.484;2023-02-17T15:47:55;4.50;99.90
19952;DHT22;10137;49.406;19.484;2023-02-17T15:50:27;4.50;99.90
19952;DHT22;10137;49.406;19.484;2023-02-17T15:52:56;4.50;99.90
19952;DHT22;10137;49.406;19.484;2023-02-17T15:55:25;4.50;99.90
19952;DHT22;10137;49.406;19.484;2023-02-17T15:57:57;4.50;99.90
19952;DHT22;10137;49.406;19.484;2023-02-17T16:00:29;4.50;99.90
19952;DHT22;10137;49.406;19.484;2023-02-17T16:02:59;4.50;99.90